sensor_id;sensor_type;location;lat;lon;timestamp;pressure;altitude;pressure_sealevel;temperature;humidity
74895;BME280;63447;49.446;8.666;2023-02-12T00:00:37;102536.13;;;6.32;74.29
74895;BME280;63447;49.446;8.666;2023-02-12T00:03:04;102538.88;;;6.32;74.35
74895;BME280;63447;49.446;8.666;2023-02-12T00:05:30;102526.84;;;6.33;74.62
74895;BME280;63447;49.446;8.666;2023-02-12T00:07:58;102522.19;;;6.34;75.04
74895;BME280;63447;49.446;8.666;2023-02-12T00:10:23;102497.53;;;6.17;74.61
74895;BME280;63447;49.446;8.666;2023-02-12T00:12:49;102520.19;;;6.29;74.97
74895;BME280;63447;49.446;8.666;2023-02-12T00:15:17;102518.53;;;6.28;75.03
74895;BME280;63447;49.446;8.666;2023-02-12T00:17:42;102516.38;;;6.30;74.56
74895;BME280;63447;49.446;8.666;2023-02-12T00:20:08;102505.19;;;6.15;74.63
74895;BME280;63447;49.446;8.666;2023-02-12T00:22:33;102505.09;;;6.10;75.59
74895;BME280;63447;49.446;8.666;2023-02-12T00:24:58;102515.72;;;6.23;74.93
74895;BME280;63447;49.446;8.666;2023-02-12T00:27:24;102515.53;;;6.30;75.49
74895;BME280;63447;49.446;8.666;2023-02-12T00:29:49;102500.28;;;6.17;74.63
74895;BME280;63447;49.446;8.666;2023-02-12T00:32:15;102508.59;;;6.22;74.72
74895;BME280;63447;49.446;8.666;2023-02-12T00:34:44;102518.97;;;6.20;74.83
74895;BME280;63447;49.446;8.666;2023-02-12T00:37:10;102521.03;;;6.13;75.87
74895;BME280;63447;49.446;8.666;2023-02-12T00:39:35;102520.38;;;6.06;75.62
74895;BME280;63447;49.446;8.666;2023-02-12T00:42:04;102520.22;;;6.12;75.94
74895;BME280;63447;49.446;8.666;2023-02-12T00:44:30;102521.88;;;6.13;75.70
74895;BME280;63447;49.446;8.666;2023-02-12T00:46:55;102535.66;;;6.19;75.63
74895;BME280;63447;49.446;8.666;2023-02-12T00:49:21;102529.94;;;6.20;75.08
74895;BME280;63447;49.446;8.666;2023-02-12T00:51:50;102533.25;;;6.22;75.45
74895;BME280;63447;49.446;8.666;2023-02-12T00:54:15;102538.78;;;6.27;74.95
74895;BME280;63447;49.446;8.666;2023-02-12T00:56:43;102522.28;;;6.22;75.06
74895;BME280;63447;49.446;8.666;2023-02-12T00:59:08;102536.31;;;6.26;74.63
74895;BME280;63447;49.446;8.666;2023-02-12T01:01:34;102537.97;;;6.27;75.33
74895;BME280;63447;49.446;8.666;2023-02-12T01:04:02;102532.94;;;6.19;75.11
74895;BME280;63447;49.446;8.666;2023-02-12T01:06:27;102542.31;;;6.23;75.13
74895;BME280;63447;49.446;8.666;2023-02-12T01:08:52;102524.13;;;6.17;75.35
74895;BME280;63447;49.446;8.666;2023-02-12T01:11:20;102529.69;;;6.22;75.79
74895;BME280;63447;49.446;8.666;2023-02-12T01:13:45;102528.44;;;6.12;74.85
74895;BME280;63447;49.446;8.666;2023-02-12T01:16:17;102543.31;;;6.17;76.12
74895;BME280;63447;49.446;8.666;2023-02-12T01:18:43;102538.66;;;6.17;74.92
74895;BME280;63447;49.446;8.666;2023-02-12T01:21:19;102534.34;;;6.21;76.21
74895;BME280;63447;49.446;8.666;2023-02-12T01:23:45;102527.94;;;6.16;75.75
74895;BME280;63447;49.446;8.666;2023-02-12T01:26:15;102527.03;;;6.10;75.79
74895;BME280;63447;49.446;8.666;2023-02-12T01:28:47;102534.25;;;6.16;76.17
74895;BME280;63447;49.446;8.666;2023-02-12T01:31:18;102535.41;;;6.20;75.59
74895;BME280;63447;49.446;8.666;2023-02-12T01:33:47;102534.66;;;6.08;76.36
74895;BME280;63447;49.446;8.666;2023-02-12T01:36:13;102516.47;;;6.02;76.19
74895;BME280;63447;49.446;8.666;2023-02-12T01:38:38;102522.69;;;6.14;76.27
74895;BME280;63447;49.446;8.666;2023-02-12T01:41:06;102530.19;;;6.19;75.71
74895;BME280;63447;49.446;8.666;2023-02-12T01:43:44;102534.34;;;6.21;74.98
74895;BME280;63447;49.446;8.666;2023-02-12T01:46:12;102542.81;;;6.20;75.26
74895;BME280;63447;49.446;8.666;2023-02-12T01:48:43;102532.84;;;6.13;74.98
74895;BME280;63447;49.446;8.666;2023-02-12T01:51:16;102532.84;;;6.13;76.29
74895;BME280;63447;49.446;8.666;2023-02-12T01:53:49;102526.03;;;6.16;75.79
74895;BME280;63447;49.446;8.666;2023-02-12T01:56:15;102526.28;;;6.15;76.14
74895;BME280;63447;49.446;8.666;2023-02-12T01:58:43;102521.72;;;6.20;75.66
74895;BME280;63447;49.446;8.666;2023-02-12T02:01:18;102524.13;;;6.17;75.84
74895;BME280;63447;49.446;8.666;2023-02-12T02:03:46;102523.88;;;6.18;75.93
74895;BME280;63447;49.446;8.666;2023-02-12T02:06:19;102519.97;;;6.14;76.10
74895;BME280;63447;49.446;8.666;2023-02-12T02:08:48;102510.72;;;6.03;75.67
74895;BME280;63447;49.446;8.666;2023-02-12T02:11:14;102494.19;;;5.98;75.44
74895;BME280;63447;49.446;8.666;2023-02-12T02:13:58;102523.53;;;6.15;75.97
74895;BME280;63447;49.446;8.666;2023-02-12T02:16:46;102518.88;;;6.15;75.01
74895;BME280;63447;49.446;8.666;2023-02-12T02:19:27;102522.94;;;6.12;76.07
74895;BME280;63447;49.446;8.666;2023-02-12T02:22:05;102530.94;;;6.14;76.06
74895;BME280;63447;49.446;8.666;2023-02-12T02:30:33;102522.94;;;6.12;76.21
74895;BME280;63447;49.446;8.666;2023-02-12T02:35:45;102528.94;;;6.09;76.19
74895;BME280;63447;49.446;8.666;2023-02-12T02:41:08;102529.34;;;6.01;76.13
74895;BME280;63447;49.446;8.666;2023-02-12T02:43:46;102525.19;;;5.99;76.90
74895;BME280;63447;49.446;8.666;2023-02-12T02:46:32;102532.56;;;5.98;77.33
74895;BME280;63447;49.446;8.666;2023-02-12T02:49:02;102514.22;;;5.99;76.16
74895;BME280;63447;49.446;8.666;2023-02-12T02:51:39;102508.09;;;5.92;76.89
74895;BME280;63447;49.446;8.666;2023-02-12T02:54:26;102509.50;;;5.94;76.84
74895;BME280;63447;49.446;8.666;2023-02-12T02:57:32;102506.44;;;5.91;76.52
74895;BME280;63447;49.446;8.666;2023-02-12T02:59:54;102501.41;;;5.88;76.47
74895;BME280;63447;49.446;8.666;2023-02-12T03:02:32;102507.13;;;5.86;77.60
74895;BME280;63447;49.446;8.666;2023-02-12T03:05:30;102510.59;;;5.93;77.86
74895;BME280;63447;49.446;8.666;2023-02-12T03:08:17;102516.41;;;5.97;76.41
74895;BME280;63447;49.446;8.666;2023-02-12T03:10:55;102517.16;;;5.92;76.87
74895;BME280;63447;49.446;8.666;2023-02-12T03:13:54;102516.41;;;5.97;76.59
74895;BME280;63447;49.446;8.666;2023-02-12T03:16:25;102519.69;;;5.99;76.25
74895;BME280;63447;49.446;8.666;2023-02-12T03:18:55;102529.00;;;5.98;77.19
74895;BME280;63447;49.446;8.666;2023-02-12T03:21:30;102518.88;;;5.98;76.71
74895;BME280;63447;49.446;8.666;2023-02-12T03:24:09;102529.09;;;6.03;77.28
74895;BME280;63447;49.446;8.666;2023-02-12T03:26:41;102522.88;;;6.07;76.91
74895;BME280;63447;49.446;8.666;2023-02-12T03:29:10;102521.78;;;6.08;76.15
74895;BME280;63447;49.446;8.666;2023-02-12T03:31:45;102527.19;;;6.03;77.13
74895;BME280;63447;49.446;8.666;2023-02-12T03:34:29;102522.78;;;6.02;76.46
74895;BME280;63447;49.446;8.666;2023-02-12T03:37:03;102526.84;;;6.00;77.04
74895;BME280;63447;49.446;8.666;2023-02-12T03:42:33;102516.91;;;5.94;76.42
74895;BME280;63447;49.446;8.666;2023-02-12T03:45:13;102504.97;;;5.88;76.26
74895;BME280;63447;49.446;8.666;2023-02-12T03:48:16;102520.72;;;5.93;75.86
74895;BME280;63447;49.446;8.666;2023-02-12T03:53:13;102525.13;;;5.94;77.21
74895;BME280;63447;49.446;8.666;2023-02-12T03:55:44;102499.91;;;5.80;76.81
74895;BME280;63447;49.446;8.666;2023-02-12T03:58:14;102534.41;;;5.93;76.99
74895;BME280;63447;49.446;8.666;2023-02-12T04:00:42;102528.81;;;5.88;77.29
74895;BME280;63447;49.446;8.666;2023-02-12T04:03:09;102524.53;;;5.92;77.10
74895;BME280;63447;49.446;8.666;2023-02-12T04:05:35;102536.66;;;5.96;76.64
74895;BME280;63447;49.446;8.666;2023-02-12T04:08:03;102529.75;;;5.93;76.93
74895;BME280;63447;49.446;8.666;2023-02-12T04:10:37;102533.91;;;5.96;77.16
74895;BME280;63447;49.446;8.666;2023-02-12T04:18:44;102539.72;;;5.99;77.65
74895;BME280;63447;49.446;8.666;2023-02-12T04:24:16;102532.41;;;6.05;76.37
74895;BME280;63447;49.446;8.666;2023-02-12T04:26:55;102543.38;;;6.05;77.13
74895;BME280;63447;49.446;8.666;2023-02-12T04:29:31;102545.13;;;6.11;76.42
74895;BME280;63447;49.446;8.666;2023-02-12T04:34:34;102543.38;;;6.05;77.14
74895;BME280;63447;49.446;8.666;2023-02-12T04:37:11;102554.34;;;6.05;76.88
74895;BME280;63447;49.446;8.666;2023-02-12T04:39:40;102548.28;;;6.03;76.35
74895;BME280;63447;49.446;8.666;2023-02-12T04:42:06;102548.28;;;6.03;76.67
74895;BME280;63447;49.446;8.666;2023-02-12T04:44:33;102550.28;;;6.07;76.58
74895;BME280;63447;49.446;8.666;2023-02-12T04:47:01;102547.53;;;6.07;76.97
74895;BME280;63447;49.446;8.666;2023-02-12T04:49:26;102545.03;;;6.06;77.13
74895;BME280;63447;49.446;8.666;2023-02-12T04:51:52;102533.16;;;6.00;76.71
74895;BME280;63447;49.446;8.666;2023-02-12T04:54:18;102546.28;;;6.15;77.56
74895;BME280;63447;49.446;8.666;2023-02-12T04:56:46;102536.75;;;6.18;76.84
74895;BME280;63447;49.446;8.666;2023-02-12T04:59:12;102527.59;;;6.12;76.34
74895;BME280;63447;49.446;8.666;2023-02-12T05:01:43;102534.75;;;6.13;76.66
74895;BME280;63447;49.446;8.666;2023-02-12T05:04:13;102537.97;;;6.10;76.83
74895;BME280;63447;49.446;8.666;2023-02-12T05:06:39;102539.06;;;6.09;76.83
74895;BME280;63447;49.446;8.666;2023-02-12T05:09:12;102534.31;;;6.04;76.93
74895;BME280;63447;49.446;8.666;2023-02-12T05:11:38;102507.84;;;5.93;76.86
74895;BME280;63447;49.446;8.666;2023-02-12T05:14:03;102535.72;;;6.07;76.72
74895;BME280;63447;49.446;8.666;2023-02-12T05:16:28;102541.22;;;6.07;77.63
74895;BME280;63447;49.446;8.666;2023-02-12T05:18:56;102528.84;;;6.04;76.97
74895;BME280;63447;49.446;8.666;2023-02-12T05:21:21;102532.16;;;6.06;77.01
74895;BME280;63447;49.446;8.666;2023-02-12T05:23:49;102531.34;;;6.06;77.59
74895;BME280;63447;49.446;8.666;2023-02-12T05:26:17;102534.31;;;6.04;76.57
74895;BME280;63447;49.446;8.666;2023-02-12T05:28:43;102536.47;;;6.02;76.82
74895;BME280;63447;49.446;8.666;2023-02-12T05:31:13;102530.94;;;5.97;76.08
74895;BME280;63447;49.446;8.666;2023-02-12T05:33:44;102516.84;;;5.77;77.50
74895;BME280;63447;49.446;8.666;2023-02-12T05:36:12;102528.47;;;5.84;77.53
74895;BME280;63447;49.446;8.666;2023-02-12T05:38:38;102533.47;;;5.87;77.13
74895;BME280;63447;49.446;8.666;2023-02-12T05:41:10;102531.44;;;5.83;77.62
74895;BME280;63447;49.446;8.666;2023-02-12T05:43:36;102532.44;;;5.76;77.43
74895;BME280;63447;49.446;8.666;2023-02-12T05:46:03;102540.25;;;5.68;77.28
74895;BME280;63447;49.446;8.666;2023-02-12T05:48:29;102532.56;;;5.53;78.54
74895;BME280;63447;49.446;8.666;2023-02-12T05:51:25;102533.16;;;5.55;78.74
74895;BME280;63447;49.446;8.666;2023-02-12T05:53:58;102549.59;;;5.55;78.56
74895;BME280;63447;49.446;8.666;2023-02-12T05:56:40;102552.47;;;5.49;77.93
74895;BME280;63447;49.446;8.666;2023-02-12T05:59:12;102535.38;;;5.41;78.94
74895;BME280;63447;49.446;8.666;2023-02-12T06:01:42;102551.88;;;5.46;78.23
74895;BME280;63447;49.446;8.666;2023-02-12T06:04:18;102545.50;;;5.41;78.21
74895;BME280;63447;49.446;8.666;2023-02-12T06:06:44;102554.38;;;5.48;78.12
74895;BME280;63447;49.446;8.666;2023-02-12T06:09:10;102554.03;;;5.44;78.39
74895;BME280;63447;49.446;8.666;2023-02-12T06:11:36;102555.84;;;5.39;77.92
74895;BME280;63447;49.446;8.666;2023-02-12T06:14:03;102558.72;;;5.32;78.48
74895;BME280;63447;49.446;8.666;2023-02-12T06:16:28;102555.88;;;5.27;78.29
74895;BME280;63447;49.446;8.666;2023-02-12T06:18:56;102562.19;;;5.28;78.60
74895;BME280;63447;49.446;8.666;2023-02-12T06:21:23;102561.34;;;5.27;78.55
74895;BME280;63447;49.446;8.666;2023-02-12T06:23:52;102563.97;;;5.22;78.90
74895;BME280;63447;49.446;8.666;2023-02-12T06:26:18;102564.81;;;5.23;78.96
74895;BME280;63447;49.446;8.666;2023-02-12T06:28:44;102555.19;;;5.20;78.99
74895;BME280;63447;49.446;8.666;2023-02-12T06:31:25;102563.16;;;5.22;79.13
74895;BME280;63447;49.446;8.666;2023-02-12T06:33:51;102569.97;;;5.19;78.73
74895;BME280;63447;49.446;8.666;2023-02-12T06:36:17;102558.06;;;5.14;78.74
74895;BME280;63447;49.446;8.666;2023-02-12T06:38:45;102564.81;;;5.23;79.05
74895;BME280;63447;49.446;8.666;2023-02-12T06:41:12;102562.31;;;5.21;78.01
74895;BME280;63447;49.446;8.666;2023-02-12T06:43:41;102571.75;;;5.14;78.75
74895;BME280;63447;49.446;8.666;2023-02-12T06:46:06;102570.09;;;5.13;79.08
74895;BME280;63447;49.446;8.666;2023-02-12T06:48:32;102577.72;;;5.10;78.83
74895;BME280;63447;49.446;8.666;2023-02-12T06:51:08;102579.03;;;5.08;77.97
74895;BME280;63447;49.446;8.666;2023-02-12T06:53:34;102574.97;;;5.10;80.12
74895;BME280;63447;49.446;8.666;2023-02-12T06:56:04;102577.59;;;5.17;79.17
74895;BME280;63447;49.446;8.666;2023-02-12T06:58:35;102575.09;;;5.16;79.53
74895;BME280;63447;49.446;8.666;2023-02-12T07:03:46;102587.34;;;5.01;80.85
74895;BME280;63447;49.446;8.666;2023-02-12T07:06:12;102563.56;;;5.02;81.83
74895;BME280;63447;49.446;8.666;2023-02-12T07:08:40;102579.25;;;5.18;80.31
74895;BME280;63447;49.446;8.666;2023-02-12T07:11:05;102571.13;;;5.23;80.21
74895;BME280;63447;49.446;8.666;2023-02-12T07:13:31;102599.31;;;5.35;79.41
74895;BME280;63447;49.446;8.666;2023-02-12T07:16:05;102591.78;;;5.42;78.96
74895;BME280;63447;49.446;8.666;2023-02-12T07:18:32;102591.44;;;5.39;78.93
74895;BME280;63447;49.446;8.666;2023-02-12T07:21:00;102601.31;;;5.40;79.33
74895;BME280;63447;49.446;8.666;2023-02-12T07:23:25;102576.56;;;5.35;80.04
74895;BME280;63447;49.446;8.666;2023-02-12T07:26:01;102583.34;;;5.44;78.68
74895;BME280;63447;49.446;8.666;2023-02-12T07:28:27;102598.50;;;5.63;78.83
74895;BME280;63447;49.446;8.666;2023-02-12T07:30:52;102593.50;;;5.60;79.06
74895;BME280;63447;49.446;8.666;2023-02-12T07:33:18;102602.47;;;5.72;79.13
74895;BME280;63447;49.446;8.666;2023-02-12T07:35:44;102609.97;;;5.77;78.61
74895;BME280;63447;49.446;8.666;2023-02-12T07:38:09;102602.09;;;5.80;78.57
74895;BME280;63447;49.446;8.666;2023-02-12T07:40:35;102596.13;;;5.84;77.94
74895;BME280;63447;49.446;8.666;2023-02-12T07:43:00;102599.81;;;5.89;78.18
74895;BME280;63447;49.446;8.666;2023-02-12T07:45:25;102598.84;;;5.95;78.88
74895;BME280;63447;49.446;8.666;2023-02-12T07:47:50;102607.81;;;5.91;79.23
74895;BME280;63447;49.446;8.666;2023-02-12T07:50:18;102612.63;;;6.00;79.29
74895;BME280;63447;49.446;8.666;2023-02-12T07:52:44;102605.31;;;6.06;78.55
74895;BME280;63447;49.446;8.666;2023-02-12T07:55:09;102607.75;;;6.19;78.55
74895;BME280;63447;49.446;8.666;2023-02-12T07:57:35;102612.22;;;6.25;77.57
74895;BME280;63447;49.446;8.666;2023-02-12T08:00:00;102605.28;;;6.18;78.52
74895;BME280;63447;49.446;8.666;2023-02-12T08:02:25;102616.16;;;6.29;78.70
74895;BME280;63447;49.446;8.666;2023-02-12T08:04:56;102608.84;;;6.35;77.38
74895;BME280;63447;49.446;8.666;2023-02-12T08:07:22;102609.19;;;6.38;77.81
74895;BME280;63447;49.446;8.666;2023-02-12T08:09:50;102597.72;;;6.41;77.55
74895;BME280;63447;49.446;8.666;2023-02-12T08:12:16;102609.06;;;6.50;78.01
74895;BME280;63447;49.446;8.666;2023-02-12T08:14:42;102602.59;;;6.56;77.39
74895;BME280;63447;49.446;8.666;2023-02-12T08:17:10;102606.09;;;6.68;77.22
74895;BME280;63447;49.446;8.666;2023-02-12T08:19:35;102611.72;;;6.78;76.70
74895;BME280;63447;49.446;8.666;2023-02-12T08:22:00;102614.69;;;6.94;77.87
74895;BME280;63447;49.446;8.666;2023-02-12T08:24:33;102614.31;;;7.07;76.46
74895;BME280;63447;49.446;8.666;2023-02-12T08:26:58;102612.28;;;6.97;74.94
74895;BME280;63447;49.446;8.666;2023-02-12T08:29:26;102625.53;;;7.05;75.59
74895;BME280;63447;49.446;8.666;2023-02-12T08:31:58;102603.22;;;6.97;75.93
74895;BME280;63447;49.446;8.666;2023-02-12T08:34:29;102622.88;;;7.10;75.89
74895;BME280;63447;49.446;8.666;2023-02-12T08:37:00;102616.22;;;7.06;75.79
74895;BME280;63447;49.446;8.666;2023-02-12T08:39:27;102629.44;;;7.09;76.37
74895;BME280;63447;49.446;8.666;2023-02-12T08:41:53;102624.53;;;7.11;76.77
74895;BME280;63447;49.446;8.666;2023-02-12T08:44:19;102611.38;;;7.13;76.52
74895;BME280;63447;49.446;8.666;2023-02-12T08:46:50;102613.69;;;7.22;75.96
74895;BME280;63447;49.446;8.666;2023-02-12T08:49:23;102620.03;;;7.22;75.77
74895;BME280;63447;49.446;8.666;2023-02-12T08:51:53;102615.53;;;7.16;75.53
74895;BME280;63447;49.446;8.666;2023-02-12T08:54:22;102624.09;;;7.20;75.96
74895;BME280;63447;49.446;8.666;2023-02-12T08:56:48;102623.53;;;7.18;75.48
74895;BME280;63447;49.446;8.666;2023-02-12T08:59:16;102622.53;;;7.24;75.23
74895;BME280;63447;49.446;8.666;2023-02-12T09:01:42;102625.25;;;7.24;74.73
74895;BME280;63447;49.446;8.666;2023-02-12T09:04:15;102625.00;;;7.25;76.02
74895;BME280;63447;49.446;8.666;2023-02-12T09:06:43;102603.66;;;7.10;75.55
74895;BME280;63447;49.446;8.666;2023-02-12T09:09:12;102618.94;;;7.23;75.47
74895;BME280;63447;49.446;8.666;2023-02-12T09:11:44;102616.97;;;7.19;76.11
74895;BME280;63447;49.446;8.666;2023-02-12T09:14:16;102633.81;;;7.27;76.10
74895;BME280;63447;49.446;8.666;2023-02-12T09:16:44;102618.13;;;7.23;75.64
74895;BME280;63447;49.446;8.666;2023-02-12T09:19:12;102630.94;;;7.39;76.56
74895;BME280;63447;49.446;8.666;2023-02-12T09:21:43;102635.41;;;7.45;75.61
74895;BME280;63447;49.446;8.666;2023-02-12T09:24:11;102633.31;;;7.52;76.47
74895;BME280;63447;49.446;8.666;2023-02-12T09:26:36;102628.84;;;7.46;76.04
74895;BME280;63447;49.446;8.666;2023-02-12T09:29:03;102633.88;;;7.54;75.80
74895;BME280;63447;49.446;8.666;2023-02-12T09:31:30;102638.09;;;7.62;75.40
74895;BME280;63447;49.446;8.666;2023-02-12T09:34:02;102626.78;;;7.58;76.14
74895;BME280;63447;49.446;8.666;2023-02-12T09:36:31;102620.25;;;7.64;75.34
74895;BME280;63447;49.446;8.666;2023-02-12T09:38:57;102630.53;;;7.74;75.09
74895;BME280;63447;49.446;8.666;2023-02-12T09:50:17;102622.44;;;7.89;74.62
74895;BME280;63447;49.446;8.666;2023-02-12T09:52:52;102628.84;;;7.95;75.10
74895;BME280;63447;49.446;8.666;2023-02-12T09:55:24;102646.00;;;8.07;74.87
74895;BME280;63447;49.446;8.666;2023-02-12T09:57:51;102641.13;;;8.14;74.39
74895;BME280;63447;49.446;8.666;2023-02-12T10:00:26;102646.63;;;8.14;74.12
74895;BME280;63447;49.446;8.666;2023-02-12T10:02:55;102626.47;;;8.03;74.50
74895;BME280;63447;49.446;8.666;2023-02-12T10:08:46;102656.66;;;8.25;74.11
74895;BME280;63447;49.446;8.666;2023-02-12T10:21:59;102648.28;;;8.42;74.18
74895;BME280;63447;49.446;8.666;2023-02-12T10:24:51;102645.06;;;8.50;74.83
74895;BME280;63447;49.446;8.666;2023-02-12T10:27:34;102649.53;;;8.56;73.94
74895;BME280;63447;49.446;8.666;2023-02-12T10:30:03;102623.59;;;8.47;72.45
74895;BME280;63447;49.446;8.666;2023-02-12T10:32:38;102639.34;;;8.57;74.19
74895;BME280;63447;49.446;8.666;2023-02-12T10:35:13;102631.78;;;8.42;74.37
74895;BME280;63447;49.446;8.666;2023-02-12T10:40:15;102629.22;;;8.67;73.39
74895;BME280;63447;49.446;8.666;2023-02-12T10:42:46;102612.38;;;8.59;73.07
74895;BME280;63447;49.446;8.666;2023-02-12T10:45:18;102613.56;;;8.68;72.56
74895;BME280;63447;49.446;8.666;2023-02-12T10:47:45;102617.78;;;8.80;74.38
74895;BME280;63447;49.446;8.666;2023-02-12T10:50:24;102624.50;;;8.63;72.58
74895;BME280;63447;49.446;8.666;2023-02-12T10:52:56;102623.22;;;8.70;71.92
74895;BME280;63447;49.446;8.666;2023-02-12T10:55:26;102618.53;;;8.71;70.97
74895;BME280;63447;49.446;8.666;2023-02-12T10:57:52;102617.47;;;8.77;71.42
74895;BME280;63447;49.446;8.666;2023-02-12T11:00:34;102611.28;;;8.60;70.97
74895;BME280;63447;49.446;8.666;2023-02-12T11:03:20;102614.16;;;8.75;70.15
74895;BME280;63447;49.446;8.666;2023-02-12T11:05:46;102611.09;;;8.71;70.53
74895;BME280;63447;49.446;8.666;2023-02-12T11:08:33;102606.59;;;8.97;69.99
74895;BME280;63447;49.446;8.666;2023-02-12T11:11:28;102598.69;;;9.16;69.64
74895;BME280;63447;49.446;8.666;2023-02-12T11:14:05;102608.31;;;9.13;68.34
74895;BME280;63447;49.446;8.666;2023-02-12T11:16:37;102598.25;;;8.87;69.46
74895;BME280;63447;49.446;8.666;2023-02-12T11:19:19;102601.69;;;9.04;70.10
74895;BME280;63447;49.446;8.666;2023-02-12T11:21:47;102602.25;;;9.11;69.02
74895;BME280;63447;49.446;8.666;2023-02-12T11:24:42;102593.19;;;9.16;69.15
74895;BME280;63447;49.446;8.666;2023-02-12T11:29:44;102586.84;;;9.15;68.89
74895;BME280;63447;49.446;8.666;2023-02-12T11:32:18;102578.47;;;9.52;68.00
74895;BME280;63447;49.446;8.666;2023-02-12T11:37:31;102581.22;;;9.63;67.07
74895;BME280;63447;49.446;8.666;2023-02-12T11:40:00;102590.59;;;9.57;66.49
74895;BME280;63447;49.446;8.666;2023-02-12T11:42:26;102581.25;;;9.73;65.81
74895;BME280;63447;49.446;8.666;2023-02-12T11:44:56;102563.06;;;9.72;66.66
74895;BME280;63447;49.446;8.666;2023-02-12T11:47:26;102566.91;;;9.71;66.68
74895;BME280;63447;49.446;8.666;2023-02-12T11:49:53;102569.41;;;9.72;65.93
74895;BME280;63447;49.446;8.666;2023-02-12T11:52:23;102542.41;;;8.92;68.04
74895;BME280;63447;49.446;8.666;2023-02-12T11:54:53;102566.03;;;9.45;67.88
74895;BME280;63447;49.446;8.666;2023-02-12T12:00:09;102561.94;;;9.68;66.27
74895;BME280;63447;49.446;8.666;2023-02-12T12:02:43;102563.94;;;9.82;67.35
74895;BME280;63447;49.446;8.666;2023-02-12T12:05:15;102563.69;;;10.09;65.84
74895;BME280;63447;49.446;8.666;2023-02-12T12:07:44;102566.19;;;10.21;64.04
74895;BME280;63447;49.446;8.666;2023-02-12T12:13:02;102559.25;;;10.18;64.23
74895;BME280;63447;49.446;8.666;2023-02-12T12:15:35;102550.72;;;10.45;62.81
74895;BME280;63447;49.446;8.666;2023-02-12T12:18:51;102531.31;;;10.81;63.10
74895;BME280;63447;49.446;8.666;2023-02-12T12:24:38;102543.38;;;11.10;61.00
74895;BME280;63447;49.446;8.666;2023-02-12T12:27:17;102530.09;;;11.12;61.51
74895;BME280;63447;49.446;8.666;2023-02-12T12:30:11;102534.69;;;11.81;58.47
74895;BME280;63447;49.446;8.666;2023-02-12T12:32:41;102535.31;;;12.07;56.92
74895;BME280;63447;49.446;8.666;2023-02-12T12:35:14;102529.44;;;11.31;59.85
74895;BME280;63447;49.446;8.666;2023-02-12T12:37:44;102532.03;;;12.05;56.79
74895;BME280;63447;49.446;8.666;2023-02-12T12:43:16;102532.25;;;12.14;56.51
74895;BME280;63447;49.446;8.666;2023-02-12T12:46:33;102520.94;;;13.35;53.74
74895;BME280;63447;49.446;8.666;2023-02-12T12:49:20;102516.09;;;14.15;50.97
74895;BME280;63447;49.446;8.666;2023-02-12T12:57:13;102502.81;;;17.66;43.93
74895;BME280;63447;49.446;8.666;2023-02-12T13:10:59;102477.84;;;21.72;33.03
74895;BME280;63447;49.446;8.666;2023-02-12T13:13:31;102467.13;;;24.51;28.69
74895;BME280;63447;49.446;8.666;2023-02-12T13:29:08;102451.25;;;26.12;25.53
74895;BME280;63447;49.446;8.666;2023-02-12T13:31:44;102440.44;;;23.45;27.12
74895;BME280;63447;49.446;8.666;2023-02-12T13:34:13;102455.22;;;23.77;28.89
74895;BME280;63447;49.446;8.666;2023-02-12T13:36:40;102446.41;;;25.15;27.25
74895;BME280;63447;49.446;8.666;2023-02-12T13:47:15;102438.00;;;27.18;23.76
74895;BME280;63447;49.446;8.666;2023-02-12T13:52:58;102449.66;;;27.06;23.15
74895;BME280;63447;49.446;8.666;2023-02-12T13:55:31;102447.88;;;27.53;23.42
74895;BME280;63447;49.446;8.666;2023-02-12T14:01:06;102436.16;;;27.58;22.75
74895;BME280;63447;49.446;8.666;2023-02-12T14:03:34;102420.66;;;27.37;22.98
74895;BME280;63447;49.446;8.666;2023-02-12T14:08:37;102416.41;;;25.07;25.56
74895;BME280;63447;49.446;8.666;2023-02-12T14:11:08;102431.75;;;26.03;23.23
74895;BME280;63447;49.446;8.666;2023-02-12T14:13:47;102426.66;;;25.49;26.39
74895;BME280;63447;49.446;8.666;2023-02-12T14:22:08;102417.66;;;26.51;23.24
74895;BME280;63447;49.446;8.666;2023-02-12T14:27:31;102421.84;;;26.67;23.96
74895;BME280;63447;49.446;8.666;2023-02-12T14:38:02;102420.56;;;25.47;24.62
74895;BME280;63447;49.446;8.666;2023-02-12T14:40:50;102400.09;;;25.57;24.96
74895;BME280;63447;49.446;8.666;2023-02-12T14:45:53;102399.25;;;25.86;24.63
74895;BME280;63447;49.446;8.666;2023-02-12T14:51:03;102398.66;;;26.07;24.80
74895;BME280;63447;49.446;8.666;2023-02-12T14:53:32;102393.16;;;25.84;24.96
74895;BME280;63447;49.446;8.666;2023-02-12T14:55:59;102387.34;;;25.36;25.03
74895;BME280;63447;49.446;8.666;2023-02-12T14:58:30;102404.00;;;25.79;24.50
74895;BME280;63447;49.446;8.666;2023-02-12T15:01:00;102387.53;;;25.54;25.37
74895;BME280;63447;49.446;8.666;2023-02-12T15:03:40;102383.91;;;25.54;25.63
74895;BME280;63447;49.446;8.666;2023-02-12T15:06:17;102399.84;;;25.35;24.62
74895;BME280;63447;49.446;8.666;2023-02-12T15:08:51;102398.22;;;25.34;26.35
74895;BME280;63447;49.446;8.666;2023-02-12T15:11:49;102405.41;;;24.49;28.16
74895;BME280;63447;49.446;8.666;2023-02-12T15:14:19;102405.47;;;24.79;27.45
74895;BME280;63447;49.446;8.666;2023-02-12T15:17:07;102391.16;;;24.91;27.06
74895;BME280;63447;49.446;8.666;2023-02-12T15:22:21;102404.91;;;24.44;28.24
74895;BME280;63447;49.446;8.666;2023-02-12T15:24:47;102396.59;;;24.28;28.03
74895;BME280;63447;49.446;8.666;2023-02-12T15:27:16;102400.78;;;23.73;27.96
74895;BME280;63447;49.446;8.666;2023-02-12T15:29:47;102401.44;;;23.27;29.50
74895;BME280;63447;49.446;8.666;2023-02-12T15:32:25;102395.03;;;22.76;31.27
74895;BME280;63447;49.446;8.666;2023-02-12T15:34:54;102398.44;;;22.82;30.28
74895;BME280;63447;49.446;8.666;2023-02-12T15:37:31;102384.72;;;22.49;31.35
74895;BME280;63447;49.446;8.666;2023-02-12T15:40:00;102401.34;;;22.22;31.09
74895;BME280;63447;49.446;8.666;2023-02-12T15:47:36;102403.94;;;20.18;35.15